TimeMST,TemperatureF,Dew PointF,Humidity,Sea Level PressureIn,VisibilityMPH,Wind Direction,Wind SpeedMPH,Gust SpeedMPH,PrecipitationIn,Events,Conditions,WindDirDegrees,DateUTC
12:53 AM,33.1,27.0,78,29.78,10.0,West,9.2,-,N/A,,Overcast,280,2013-02-24 07:53:00
1:23 AM,32.0,28.4,87,29.75,2.0,West,8.1,-,0.00,Snow,Light Snow,280,2013-02-24 08:23:00
1:34 AM,32.0,30.2,93,29.75,1.5,West,6.9,-,0.00,Snow,Light Snow,270,2013-02-24 08:34:00
1:53 AM,32.0,30.0,92,29.78,1.0,Calm,Calm,-,0.01,Snow,Light Snow,0,2013-02-24 08:53:00
2:09 AM,32.0,30.2,93,29.74,1.5,Calm,Calm,-,0.01,Snow,Light Snow,0,2013-02-24 09:09:00
2:20 AM,30.2,30.2,100,29.74,2.5,Calm,Calm,-,0.01,Snow,Light Snow,0,2013-02-24 09:20:00
2:22 AM,30.2,30.2,100,29.74,3.0,WNW,3.5,-,0.01,Snow,Light Snow,300,2013-02-24 09:22:00
2:43 AM,30.2,30.2,100,29.74,2.5,NW,8.1,-,0.01,Snow,Light Snow,320,2013-02-24 09:43:00
2:53 AM,30.9,28.9,92,29.77,1.8,NW,8.1,-,0.01,Snow,Light Snow,320,2013-02-24 09:53:00
3:07 AM,30.2,30.2,100,29.73,2.0,NNW,9.2,-,0.01,Snow,Light Snow,330,2013-02-24 10:07:00
3:36 AM,30.2,30.2,100,29.73,1.0,NNW,9.2,-,0.01,,Overcast,330,2013-02-24 10:36:00
3:41 AM,30.2,30.2,100,29.73,0.8,NNW,9.2,-,0.01,,Overcast,330,2013-02-24 10:41:00
3:48 AM,30.2,30.2,100,29.73,1.0,NNW,10.4,-,0.01,Snow,Light Snow,330,2013-02-24 10:48:00
3:53 AM,30.9,30.0,96,29.77,1.2,NNW,10.4,-,0.01,Snow,Light Snow,330,2013-02-24 10:53:00
4:05 AM,30.2,30.2,100,29.73,2.0,NNW,11.5,-,0.00,Snow,Light Snow,330,2013-02-24 11:05:00
4:40 AM,30.2,30.2,100,29.75,2.0,NW,8.1,-,0.00,Snow,Light Snow,320,2013-02-24 11:40:00
4:53 AM,30.9,30.0,96,29.81,1.5,NW,8.1,-,0.00,Snow,Light Snow,320,2013-02-24 11:53:00
5:04 AM,30.2,30.2,100,29.75,1.0,NNW,6.9,-,0.00,Snow,Light Snow,330,2013-02-24 12:04:00
5:16 AM,30.2,30.2,100,29.76,1.2,NNW,8.1,-,0.00,Snow,Light Snow,340,2013-02-24 12:16:00
5:30 AM,30.2,30.2,100,29.76,1.8,North,8.1,-,0.01,Snow,Light Snow,350,2013-02-24 12:30:00
5:53 AM,30.0,28.9,96,29.85,1.5,NNE,16.1,20.7,0.01,Snow,Light Snow,30,2013-02-24 12:53:00
6:33 AM,30.2,28.4,93,29.79,1.5,NNE,15.0,-,0.00,Snow,Light Snow,20,2013-02-24 13:33:00
6:53 AM,28.9,27.0,92,29.89,1.0,NNE,15.0,-,0.00,Snow,Light Snow,30,2013-02-24 13:53:00
7:08 AM,28.4,26.6,93,29.81,0.8,NNE,15.0,-,0.00,Snow,Light Snow,30,2013-02-24 14:08:00
7:19 AM,28.4,26.6,93,29.81,1.2,NNE,16.1,24.2,0.00,Snow,Light Snow,30,2013-02-24 14:19:00
7:40 AM,28.4,26.6,93,29.82,1.0,NNE,20.7,-,0.00,Snow,Light Snow,30,2013-02-24 14:40:00
7:53 AM,28.0,26.1,92,29.92,0.8,NNE,17.3,-,0.00,Snow,Light Snow,30,2013-02-24 14:53:00
8:53 AM,28.0,26.1,92,29.95,0.5,NNE,23.0,28.8,0.01,Fog-Snow,Light Snow,30,2013-02-24 15:53:00
9:53 AM,28.0,26.1,92,29.96,0.5,NNE,17.3,-,0.00,Fog-Snow,Light Snow,20,2013-02-24 16:53:00
10:14 AM,28.4,24.8,86,29.89,0.5,NNE,21.9,29.9,0.00,Fog-Snow,Snow,20,2013-02-24 17:14:00
10:46 AM,28.4,24.8,86,29.90,0.8,NNE,19.6,-,0.00,Snow,Light Snow,20,2013-02-24 17:46:00
10:53 AM,28.0,25.0,88,29.98,0.8,NNE,20.7,26.5,0.00,Snow,Light Snow,20,2013-02-24 17:53:00
11:32 AM,28.4,24.8,86,29.91,1.2,North,13.8,-,0.00,Snow,Light Snow,10,2013-02-24 18:32:00
11:40 AM,30.2,24.8,80,29.91,1.8,NNE,16.1,-,0.00,Snow,Light Snow,20,2013-02-24 18:40:00
11:48 AM,30.2,24.8,80,29.91,2.0,North,17.3,-,0.00,Snow,Light Snow,10,2013-02-24 18:48:00
11:53 AM,30.0,25.0,82,29.98,2.5,North,18.4,-,0.00,Snow,Light Snow,10,2013-02-24 18:53:00
12:17 PM,30.2,26.6,86,29.91,2.0,NNE,18.4,-,0.00,Snow,Light Snow,20,2013-02-24 19:17:00
12:25 PM,30.2,26.6,86,29.91,1.5,NNE,17.3,-,0.00,Snow,Light Snow,20,2013-02-24 19:25:00
12:37 PM,30.2,26.6,86,29.91,1.0,NNE,18.4,-,0.00,Snow,Light Snow,20,2013-02-24 19:37:00
12:46 PM,30.2,26.6,86,29.91,1.0,NNE,16.1,-,0.00,Snow,Light Snow,20,2013-02-24 19:46:00
12:53 PM,30.0,26.1,85,29.97,1.2,NNE,19.6,-,0.00,Snow,Light Snow,20,2013-02-24 19:53:00
1:03 PM,28.4,24.8,86,29.90,2.0,NNE,19.6,-,0.00,Snow,Light Snow,30,2013-02-24 20:03:00
1:31 PM,28.4,24.8,86,29.90,1.2,NNE,17.3,-,0.00,Snow,Light Snow,30,2013-02-24 20:31:00
1:53 PM,30.0,26.1,85,29.97,2.0,NNE,12.7,-,0.00,Snow,Light Snow,30,2013-02-24 20:53:00
1:57 PM,30.2,26.6,86,29.90,1.8,NNE,12.7,-,0.00,Snow,Light Snow,30,2013-02-24 20:57:00
2:02 PM,30.2,26.6,86,29.90,1.5,NNE,11.5,-,0.00,Snow,Light Snow,30,2013-02-24 21:02:00
2:18 PM,30.2,26.6,86,29.90,1.0,NNE,13.8,-,0.00,Snow,Light Snow,30,2013-02-24 21:18:00
2:33 PM,30.2,26.6,86,29.90,2.0,North,15.0,-,0.00,Snow,Light Snow,10,2013-02-24 21:33:00
2:44 PM,30.2,26.6,86,29.91,1.8,NNE,13.8,-,0.00,Snow,Light Snow,20,2013-02-24 21:44:00
2:53 PM,30.0,27.0,88,29.98,1.2,NNE,15.0,-,0.01,Snow,Light Snow,20,2013-02-24 21:53:00
3:04 PM,30.2,26.6,86,29.91,2.0,North,18.4,-,0.00,Snow,Light Snow,10,2013-02-24 22:04:00
3:15 PM,30.2,26.6,86,29.91,1.8,North,16.1,-,0.00,Snow,Light Snow,10,2013-02-24 22:15:00
3:37 PM,30.2,26.6,86,29.92,2.5,North,21.9,-,0.00,Snow,Light Snow,10,2013-02-24 22:37:00
3:43 PM,30.2,26.6,86,29.93,3.0,North,19.6,-,0.00,Snow,Light Snow,10,2013-02-24 22:43:00
3:50 PM,30.2,26.6,86,29.93,4.0,North,18.4,-,0.00,Snow,Light Snow,360,2013-02-24 22:50:00
3:53 PM,30.0,27.0,88,30.01,3.0,North,18.4,-,0.00,Snow,Light Snow,360,2013-02-24 22:53:00
3:56 PM,30.2,26.6,86,29.93,2.5,North,21.9,-,0.00,Snow,Light Snow,360,2013-02-24 22:56:00
4:04 PM,30.2,26.6,86,29.94,3.0,North,19.6,27.6,0.00,Snow,Light Snow,10,2013-02-24 23:04:00
4:53 PM,30.0,26.1,85,30.04,6.0,North,18.4,-,0.00,Snow,Light Snow,360,2013-02-24 23:53:00
5:42 PM,28.4,24.8,86,29.99,10.0,North,15.0,-,0.00,,Overcast,360,2013-02-25 00:42:00
5:53 PM,28.9,25.0,85,30.08,10.0,North,15.0,-,0.00,,Overcast,360,2013-02-25 00:53:00
6:53 PM,28.9,25.0,85,30.13,10.0,North,12.7,-,0.00,,Overcast,10,2013-02-25 01:53:00
7:53 PM,28.9,24.1,82,30.14,10.0,North,12.7,-,0.00,,Overcast,10,2013-02-25 02:53:00
8:43 PM,28.4,24.8,86,30.06,7.0,North,10.4,-,0.00,Snow,Light Snow,360,2013-02-25 03:43:00
8:53 PM,28.0,25.0,88,30.17,6.0,North,10.4,-,0.00,Snow,Light Snow,360,2013-02-25 03:53:00
9:15 PM,28.4,24.8,86,30.07,6.0,North,8.1,-,0.00,Snow,Light Snow,360,2013-02-25 04:15:00
9:29 PM,28.4,24.8,86,30.07,2.0,North,8.1,-,0.00,Snow,Light Snow,360,2013-02-25 04:29:00
9:44 PM,28.4,24.8,86,30.07,2.5,North,6.9,-,0.00,Snow,Light Snow,360,2013-02-25 04:44:00
9:48 PM,28.4,24.8,86,30.07,3.0,North,6.9,-,0.00,Snow,Light Snow,350,2013-02-25 04:48:00
9:53 PM,28.0,25.0,88,30.17,3.0,North,9.2,-,0.00,Snow,Light Snow,360,2013-02-25 04:53:00
10:03 PM,28.4,24.8,86,30.07,3.0,North,8.1,-,0.00,Snow,Light Snow,350,2013-02-25 05:03:00
10:50 PM,26.6,24.8,93,30.06,9.0,NNW,10.4,-,0.00,,Overcast,340,2013-02-25 05:50:00
10:53 PM,27.0,24.1,89,30.16,9.0,NNW,10.4,-,0.00,,Overcast,340,2013-02-25 05:53:00
11:25 PM,26.6,24.8,93,30.05,10.0,NNW,9.2,-,0.00,,Overcast,340,2013-02-25 06:25:00
11:38 PM,26.6,24.8,93,30.04,10.0,NNW,8.1,-,0.00,,Overcast,340,2013-02-25 06:38:00
11:53 PM,27.0,24.1,89,30.14,10.0,NNW,6.9,-,0.00,,Overcast,340,2013-02-25 06:53:00